Nearby METAR Reports

 

KLOM - Philly Wings F, Pennsylvania, USA
Distance from station: SW 6mi, 10km
Updated: Fri, 28-Nov-2014 8:55pm EST
Clear
Clear
 Wind from calm
Wind: Calm
Temperature: 28°F , -2°C
Dew Point: 21°F , -6°C
Humidity: 74%
Barometer: 30.26 inHg , 1024.7 hPa
Clouds: Clear
Visibility: 10 miles , 16 km
2014/11/29 01:55 KLOM 290155Z AUTO 00000KT 10SM CLR M02/M06 A3026 RMK AO1
KDYL - Doylestown, Pennsylvania, USA
Distance from station: NNE 10mi, 17km
Updated: Fri, 28-Nov-2014 8:54pm EST
Clear
Clear
 Wind from calm
Wind: Calm
Temperature: 25°F , -4°C
Dew Point: 16°F , -9°C
Humidity: 69%
Barometer: 30.26 inHg , 1024.7 hPa
Clouds: Clear
Visibility: 10 miles , 16 km
2014/11/29 01:54 KDYL 290154Z AUTO 00000KT 10SM CLR M04/M09 A3026 RMK AO2 SLP256 T10441089 $
KPNE - Philadelphia/Ne, Pennsylvania, USA
Distance from station: SE 11mi, 18km
Updated: Fri, 28-Nov-2014 8:54pm EST
Clear
Clear
 Wind from NW
Wind: NW 6 mph , 9 km/h
Temperature: 30°F , -1°C
Wind Chill: 24°F , -4°C
Dew Point: 16°F , -9°C
Humidity: 55%
Barometer: 30.29 inHg , 1025.7 hPa
Clouds: Clear
Visibility: 10 miles , 16 km
2014/11/29 01:54 KPNE 290154Z AUTO 32005KT 10SM CLR M01/M09 A3029 RMK AO2 SLP258 T10111094 TSNO
 
KPTW - Pottstown, Pennsylvania, USA
Distance from station: W 20mi, 32km
Updated: Fri, 28-Nov-2014 8:54pm EST
Clear
Clear
 Wind from calm
Wind: Calm
Temperature: 23°F , -5°C
Dew Point: 16°F , -9°C
Humidity: 74%
Barometer: 30.28 inHg , 1025.4 hPa
Clouds: Clear
Visibility: 10 miles , 16 km
2014/11/29 01:54 KPTW 290154Z AUTO 00000KT 10SM CLR M05/M09 A3028 RMK AO2 SLP255 T10501089
KTTN - Trenton, New Jersey, USA
Distance from station: ENE 20mi, 32km
Updated: Fri, 28-Nov-2014 8:53pm EST
Clear
Clear
 
Temperature: 27°F , -3°C
Dew Point: 16°F , -9°C
Humidity: 64%
Barometer: 30.27 inHg , 1025.1 hPa
Clouds: Clear
Visibility: 10 miles , 16 km
2014/11/29 01:53 KTTN 290153Z 10SM CLR M03/M09 A3027 RMK AO2 SLP246 T10331094
KUKT - Quakertown Arp, Pennsylvania, USA
Distance from station: NNW 20mi, 32km
Updated: Fri, 28-Nov-2014 8:55pm EST
Clear
Clear
 Wind from calm
Wind: Calm
Temperature: 23°F , -5°C
Dew Point: 18°F , -8°C
Humidity: 80%
Barometer: 30.26 inHg , 1024.7 hPa
Clouds: Clear
Visibility: 10 miles , 16 km
2014/11/29 01:55 KUKT 290155Z AUTO 00000KT 10SM CLR M05/M08 A3026 RMK AO1
 
KPHL - Philadelphia, Pennsylvania, USA
Distance from station: S 22mi, 36km
Updated: Fri, 28-Nov-2014 8:54pm EST
Mostly cloudy
Mostly cloudy
 Wind from W
Wind: W 7 mph , 11 km/h
Temperature: 32°F , 0°C
Wind Chill: 25°F , -4°C
Dew Point: 18°F , -8°C
Humidity: 55%
Barometer: 30.29 inHg , 1025.7 hPa
Clouds: Mostly cloudy
Visibility: 10 miles , 16 km
Cloud details: Mostly cloudy 25000 ft
2014/11/29 01:54 KPHL 290154Z 28006KT 10SM BKN250 00/M08 A3029 RMK AO2 SLP258 T00001083 $
KVAY - Mount Holly, New Jersey, USA
Distance from station: SE 25mi, 41km
Updated: Fri, 28-Nov-2014 8:54pm EST
Clear
Clear
 Wind from WNW
Wind: WNW 3 mph , 6 km/h
Temperature: 30°F , -1°C
Dew Point: 18°F , -8°C
Humidity: 59%
Barometer: 30.28 inHg , 1025.4 hPa
Clouds: Clear
Visibility: 10 miles , 16 km
2014/11/29 01:54 KVAY 290154Z AUTO 29003KT 10SM CLR M01/M08 A3028 RMK AO2 SLP254 T10111083
KXLL - Allentown Queen, Pennsylvania, USA
Distance from station: NNW 31mi, 49km
Updated: Fri, 28-Nov-2014 8:55pm EST
Clear
Clear
 Wind from calm
Wind: Calm
Temperature: 27°F , -3°C
Dew Point: 18°F , -8°C
Humidity: 69%
Barometer: 30.27 inHg , 1025.1 hPa
Clouds: Clear
Visibility: 10 miles , 16 km
2014/11/29 01:55 KXLL 290155Z AUTO 00000KT 10SM CLR M03/M08 A3027 RMK AO2
 
KWRI - Wrightst/Mcguire, New Jersey, USA
Distance from station: ESE 34mi, 54km
Updated: Fri, 28-Nov-2014 8:58pm EST
Clear
Clear
 Wind from NW
Wind: NW 5 mph , 7 km/h
Temperature: 28°F , -2°C
Wind Chill: 22°F , -6°C
Dew Point: 16°F , -9°C
Humidity: 59%
Barometer: 30.23 inHg , 1023.7 hPa
Clouds: Clear
Visibility: 10 miles , 16 km
2014/11/29 01:58 KWRI 290158Z AUTO 31004KT 10SM CLR M02/M09 A3023 RMK AO2 SLP242
KABE - Allentown, Pennsylvania, USA
Distance from station: NNW 35mi, 56km
Updated: Fri, 28-Nov-2014 8:51pm EST
Clear
Clear
 Wind from calm
Wind: Calm
Temperature: 25°F , -4°C
Dew Point: 14°F , -10°C
Humidity: 63%
Barometer: 30.26 inHg , 1024.7 hPa
Clouds: Clear
Visibility: 10 miles , 16 km
2014/11/29 01:51 KABE 290151Z 00000KT 10SM CLR M04/M10 A3026 RMK AO2 SLP253 T10441100 $
KMQS - Coatesville, Pennsylvania, USA
Distance from station: WSW 39mi, 63km
Updated: Fri, 28-Nov-2014 8:55pm EST
Clear
Clear
 Wind from W
Wind: W 5 mph , 7 km/h
Temperature: 27°F , -3°C
Wind Chill: 21°F , -6°C
Dew Point: 18°F , -8°C
Humidity: 69%
Barometer: 30.26 inHg , 1024.7 hPa
Clouds: Clear
Visibility: 10 miles , 16 km
2014/11/29 01:55 KMQS 290155Z AUTO 27004KT 10SM CLR M03/M08 A3026 RMK AO2
 
KSMQ - Somerville, New Jersey, USA
Distance from station: NE 40mi, 64km
Updated: Fri, 28-Nov-2014 8:53pm EST
Clear
Clear
 Wind from calm
Wind: Calm
Temperature: 21°F , -6°C
Dew Point: 16°F , -9°C
Humidity: 80%
Barometer: 30.26 inHg , 1024.7 hPa
Clouds: Clear
Visibility: 10 miles , 16 km
2014/11/29 01:53 KSMQ 290153Z AUTO 00000KT 10SM CLR M06/M09 A3026 RMK AO2 SLP250 T10561089
KILG - Wilmington, Delaware, USA
Distance from station: SSW 42mi, 68km
Updated: Fri, 28-Nov-2014 8:51pm EST
Clear
Clear
 Wind from W
Wind: W 5 mph , 7 km/h
Temperature: 28°F , -2°C
Wind Chill: 22°F , -6°C
Dew Point: 18°F , -8°C
Humidity: 64%
Barometer: 30.30 inHg , 1026.1 hPa
Clouds: Clear
Visibility: 10 miles , 16 km
2014/11/29 01:51 KILG 290151Z AUTO 28004KT 10SM CLR M02/M08 A3030 RMK AO2 SLP261 T10171078
KRDG - Reading, Pennsylvania, USA
Distance from station: WNW 43mi, 70km
Updated: Fri, 28-Nov-2014 8:54pm EST
Clear
Clear
 Wind from W
Wind: W 6 mph , 9 km/h
Temperature: 27°F , -3°C
Wind Chill: 20°F , -7°C
Dew Point: 16°F , -9°C
Humidity: 64%
Barometer: 30.26 inHg , 1024.7 hPa
Clouds: Clear
Visibility: 10 miles , 16 km
2014/11/29 01:54 KRDG 290154Z AUTO 28005KT 10SM CLR M03/M09 A3026 RMK AO2 SLP256 T10281094
 
KNEL - Lakehurst Nas, New Jersey, USA
Distance from station: ESE 46mi, 74km
Updated: Mon, 06-Oct-2014 4:00pm EDT
NOT Current
Clear
Clear
 Wind from S
Wind: S 15 mph , 24 km/h, Gust: 23 mph , 37 km/h
Temperature: 70°F , 21°C
Dew Point: 46°F , 8°C
Humidity: 43%
Barometer: 30.01 inHg , 1016.3 hPa
Clouds: Clear
Visibility: 10 miles , 16 km
2014/10/06 20:00 KNEL 062000Z AUTO 17013G20KT 10SM CLR 21/08 A3001 RMK AO2 SLP163 T02110083 $
KMJX - Toms River, New Jersey, USA
Distance from station: ESE 50mi, 80km
Updated: Fri, 28-Nov-2014 8:55pm EST
Clear
Clear
 Wind from calm
Wind: Calm
Temperature: 23°F , -5°C
Dew Point: 19°F , -7°C
Humidity: 86%
Barometer: 30.28 inHg , 1025.4 hPa
Clouds: Clear
Visibility: 10 miles , 16 km
2014/11/29 01:55 KMJX 290155Z AUTO 00000KT 10SM CLR M05/M07 A3028 RMK AO1